Terminal Aerodrome Forecast
Issued by NWS

Home | Current Version | Previous Version | Text Only | Print | Product List | Glossary On
Versions: 1 2 3 4 5 6 7 8 9 10 11 12 13 14 15 16 17 18 19 20 21 22 23
000
FTPA31 PHFO 191100
TAFJRF
TAF
PHJR 191120Z 1912/2012 VRB03KT P6SM FEW040 OVC250
     FM191900 06008G15KT P6SM FEW030 SCT045 BKN250
     FM200500 VRB05KT P6SM SCT040=

USA.gov is the U.S. government's official web portal to all federal, state and local government web resources and services.